Main page
METAR-TAF:

METAR-TAF

Airports :

Altenstadt Air Base

Altenstadt, Germany

latitude: 47-50N, longitude: 010-52E, elevation: 739 m

Current weather observation

The report was made 1 hour and 8 minutes ago, at 16:20 UTC
Wind 3 kt from the Northeast
Temperature 11°C
Humidity 47%
Pressure 1015 hPa
Visibility 10 km or more
Few clouds at a height of 2500 ft

METAR: ETHA 201620Z 05003KT 9999 FEW025 11/00 Q1015 BLU+

Time: 19:28 (17:28 UTC)

Forecast

The report was made 4 hours and 18 minutes ago, at 13:10 UTC
Forecast valid from 20 at 14 UTC to 20 at 23 UTC
Wind 5 kt from the East
Visibility 10 km or more
Few clouds at a height of 2500 ft
Broken clouds at a height of 9000 ft
Temporary
from 20 at 14 UTC to 20 at 17 UTC
Wind 10 kt from the East
Visibility: 7000 m
Few clouds at a height of 1500 ft
Broken clouds at a height of 2500 ft, Cumulonimbus.
rain showers

TAF: ETHA 201310Z 2014/2023 08005KT 9999 NSW FEW025 BKN090 TEMPO 2014/2017 08010KT 7000 SHRA FEW015 BKN025CB

Weather observations and forecasts of more than 4000 airports (METAR and TAF reports).

The available stations are represented by yellow and red dots on the map.

Hover mouse over dot to see the name of the station.

Then click to see weather observations and forecasts.

To change the map : click on the green buttons with a black cross to zoom in, on the green button with a dash to zoom out, or on the green arrows for adjacent maps.


METAR-TAF: